Time;durP1;ratioP1;P1;durP2;ratioP2;P2;SDS_P1;SDS_P2;PMS_P1;PMS_P2;Temp;Humidity;BMP_temperature;BMP_pressure;BME280_temperature;BME280_humidity;BME280_pressure;Samples;Min_cycle;Max_cycle;Signal;HPM_P1;HPM_P2
2022/10/25 00:02:15;;;;;;;6.57;1.27;;;14.50;99.90;;;;;;5062989;28;20437;-73
2022/10/25 00:05:00;;;;;;;5.80;2.07;;;14.50;99.90;;;;;;5063654;28;20444;-73
2022/10/25 00:07:47;;;;;;;3.60;1.00;;;14.50;99.90;;;;;;5066221;28;20448;-73
2022/10/25 00:10:33;;;;;;;4.27;1.20;;;14.40;99.90;;;;;;5063474;28;20430;-73
2022/10/25 00:13:19;;;;;;;7.57;1.10;;;14.30;99.90;;;;;;5063859;28;20436;-73
2022/10/25 00:16:05;;;;;;;11.23;1.33;;;14.20;99.90;;;;;;5064460;28;20541;-73
2022/10/25 00:18:50;;;;;;;10.37;1.67;;;14.10;99.90;;;;;;5064507;28;20422;-73
2022/10/25 00:21:36;;;;;;;3.93;0.90;;;14.00;99.90;;;;;;5061491;28;20491;-73
2022/10/25 00:24:23;;;;;;;3.00;1.10;;;13.90;99.90;;;;;;5061813;28;20394;-73
2022/10/25 00:27:09;;;;;;;6.60;1.37;;;13.80;99.90;;;;;;5066497;28;20576;-73
2022/10/25 00:29:55;;;;;;;4.80;1.70;;;13.90;99.90;;;;;;5069248;28;20938;-73
2022/10/25 00:32:40;;;;;;;2.67;1.10;;;14.00;99.90;;;;;;5061297;28;20672;-73
2022/10/25 00:35:26;;;;;;;13.33;2.53;;;14.00;99.90;;;;;;5065420;28;20821;-73
2022/10/25 00:38:12;;;;;;;4.33;1.30;;;14.00;99.90;;;;;;5066738;28;20403;-73
2022/10/25 00:40:59;;;;;;;4.63;0.83;;;14.10;99.90;;;;;;5064624;28;20426;-73
2022/10/25 00:43:47;;;;;;;18.20;1.90;;;14.10;99.90;;;;;;5069617;28;20411;-73
2022/10/25 00:46:33;;;;;;;7.63;1.30;;;14.10;99.90;;;;;;5067826;28;20433;-73
2022/10/25 00:49:21;;;;;;;9.70;1.13;;;14.20;99.90;;;;;;5065559;28;20423;-73
2022/10/25 00:52:08;;;;;;;5.30;1.20;;;14.30;99.90;;;;;;5068202;28;20454;-72
2022/10/25 00:54:54;;;;;;;2.37;1.10;;;14.30;99.90;;;;;;5068230;28;20425;-73
2022/10/25 00:57:46;;;;;;;5.10;1.17;;;14.30;99.90;;;;;;5068170;28;20466;-73
2022/10/25 01:00:32;;;;;;;9.97;1.30;;;14.40;99.90;;;;;;5067915;28;20452;-73
2022/10/25 01:03:20;;;;;;;7.13;1.57;;;14.50;99.90;;;;;;5071395;28;20577;-73
2022/10/25 01:06:12;;;;;;;3.80;1.13;;;14.40;99.90;;;;;;5068306;28;20932;-73
2022/10/25 01:08:58;;;;;;;2.53;1.07;;;14.50;99.90;;;;;;5070605;28;20569;-73
2022/10/25 01:11:44;;;;;;;5.80;1.30;;;14.40;99.90;;;;;;5062881;28;20581;-73
2022/10/25 01:14:35;;;;;;;3.27;1.30;;;14.50;99.90;;;;;;5067179;28;20437;-73
2022/10/25 01:17:29;;;;;;;3.73;1.00;;;14.50;99.90;;;;;;5068401;28;20538;-73
2022/10/25 01:20:55;;;;;;;3.93;1.00;;;14.60;99.90;;;;;;5066278;28;20521;-73
2022/10/25 01:24:09;;;;;;;10.43;1.60;;;14.60;99.90;;;;;;5067434;28;20434;-73
2022/10/25 01:27:18;;;;;;;10.03;1.57;;;14.70;99.90;;;;;;5071615;28;20883;-73
2022/10/25 01:30:14;;;;;;;5.73;1.20;;;14.80;99.90;;;;;;5068020;28;20472;-74
2022/10/25 01:33:14;;;;;;;3.00;1.13;;;14.80;99.90;;;;;;5066063;28;20650;-73
2022/10/25 01:36:06;;;;;;;5.63;0.97;;;14.80;99.90;;;;;;5066651;28;20423;-74
2022/10/25 01:38:59;;;;;;;3.87;1.30;;;14.90;99.90;;;;;;5067538;28;20444;-74
2022/10/25 01:41:56;;;;;;;3.30;1.13;;;14.90;99.90;;;;;;5052514;28;20421;-74
2022/10/25 01:44:54;;;;;;;5.70;1.30;;;14.90;99.90;;;;;;5052730;28;20412;-74
2022/10/25 01:47:44;;;;;;;4.00;0.90;;;14.90;99.90;;;;;;5053031;28;20436;-74
2022/10/25 01:50:36;;;;;;;4.50;1.13;;;14.90;99.90;;;;;;5055614;28;20396;-72
2022/10/25 01:53:21;;;;;;;4.90;1.07;;;14.90;99.90;;;;;;5058042;28;20572;-74
2022/10/25 01:56:07;;;;;;;3.23;1.20;;;14.90;99.90;;;;;;5069386;28;20530;-75
2022/10/25 01:59:05;;;;;;;2.43;1.10;;;14.90;99.90;;;;;;5070743;28;20566;-74
2022/10/25 02:02:01;;;;;;;10.33;1.57;;;14.90;99.90;;;;;;5066719;28;20821;-74
2022/10/25 02:04:55;;;;;;;7.07;1.10;;;14.90;99.90;;;;;;5066973;28;21108;-74
2022/10/25 02:07:48;;;;;;;3.83;1.60;;;14.90;99.90;;;;;;5067326;28;20466;-74
2022/10/25 02:10:38;;;;;;;8.40;1.37;;;14.90;99.90;;;;;;5065966;28;20581;-74
2022/10/25 02:13:31;;;;;;;4.77;1.30;;;14.90;99.90;;;;;;5066109;28;21011;-74
2022/10/25 02:16:22;;;;;;;7.63;1.37;;;15.00;99.90;;;;;;5062623;28;20506;-74
2022/10/25 02:19:12;;;;;;;9.97;1.30;;;15.00;99.90;;;;;;5065291;28;20446;-74
2022/10/25 02:22:00;;;;;;;10.13;1.30;;;14.90;99.90;;;;;;5069000;28;20422;-73
2022/10/25 02:24:49;;;;;;;1.77;0.93;;;14.90;99.90;;;;;;5063196;28;20409;-74
2022/10/25 02:27:38;;;;;;;2.50;0.90;;;15.00;99.90;;;;;;5071262;28;20461;-74
2022/10/25 02:30:23;;;;;;;5.67;1.60;;;14.90;99.90;;;;;;5051919;28;20579;-75
2022/10/25 02:33:10;;;;;;;5.00;1.30;;;14.90;99.90;;;;;;5059690;28;20538;-74
2022/10/25 02:36:12;;;;;;;5.80;1.20;;;14.90;99.90;;;;;;5068803;28;20466;-74
2022/10/25 02:38:59;;;;;;;8.47;1.20;;;14.80;99.90;;;;;;5072472;28;20480;-74
2022/10/25 02:41:46;;;;;;;4.90;1.40;;;14.90;99.90;;;;;;5068943;28;20509;-74
2022/10/25 02:44:31;;;;;;;2.83;1.13;;;15.00;99.90;;;;;;5057474;28;20945;-74
2022/10/25 02:47:17;;;;;;;5.90;1.40;;;15.00;99.90;;;;;;5052033;28;20819;-74
2022/10/25 02:50:03;;;;;;;4.47;1.27;;;15.00;99.90;;;;;;5051822;28;20532;-74
2022/10/25 02:52:48;;;;;;;4.97;1.47;;;15.00;99.90;;;;;;5053845;28;20502;-75
2022/10/25 02:55:34;;;;;;;5.23;1.30;;;15.00;99.90;;;;;;5059456;28;20986;-74
2022/10/25 02:58:21;;;;;;;5.60;1.57;;;15.00;99.90;;;;;;5068302;28;20499;-74
2022/10/25 03:01:07;;;;;;;6.40;1.23;;;15.00;99.90;;;;;;5065877;28;20459;-75
2022/10/25 03:03:53;;;;;;;7.37;1.40;;;15.00;99.90;;;;;;5069268;28;20772;-75
2022/10/25 03:06:39;;;;;;;3.10;1.30;;;15.10;99.90;;;;;;5070659;28;20512;-74
2022/10/25 03:09:25;;;;;;;4.57;1.20;;;15.00;99.90;;;;;;5068396;28;20795;-74
2022/10/25 03:12:10;;;;;;;2.87;1.10;;;15.10;99.90;;;;;;5061856;28;20868;-74
2022/10/25 03:14:57;;;;;;;10.17;2.00;;;15.00;99.90;;;;;;5067571;28;20556;-73
2022/10/25 03:17:43;;;;;;;5.13;1.33;;;15.00;99.90;;;;;;5065484;28;20836;-74
2022/10/25 03:20:28;;;;;;;10.43;1.37;;;15.00;99.90;;;;;;5068223;28;20454;-75
2022/10/25 03:23:14;;;;;;;4.53;1.27;;;15.00;99.90;;;;;;5065694;28;20447;-74
2022/10/25 03:26:00;;;;;;;7.13;1.77;;;15.00;99.90;;;;;;5067945;28;20508;-75
2022/10/25 03:28:46;;;;;;;6.47;1.80;;;15.00;99.90;;;;;;5068937;28;20401;-74
2022/10/25 03:31:33;;;;;;;4.43;1.20;;;15.00;99.90;;;;;;5059098;28;20426;-74
2022/10/25 03:34:18;;;;;;;4.80;1.57;;;15.00;99.90;;;;;;5057570;28;20846;-74
2022/10/25 03:37:04;;;;;;;4.67;1.00;;;14.90;99.90;;;;;;5069115;28;20859;-74
2022/10/25 03:39:49;;;;;;;4.07;1.20;;;14.80;99.90;;;;;;5068290;28;20424;-74
2022/10/25 03:42:35;;;;;;;6.40;1.63;;;14.90;99.90;;;;;;5061926;28;20804;-75
2022/10/25 03:45:21;;;;;;;3.93;1.10;;;14.90;99.90;;;;;;5068431;28;20464;-74
2022/10/25 03:48:08;;;;;;;7.63;1.50;;;14.80;99.90;;;;;;5066122;28;20563;-74
2022/10/25 03:50:54;;;;;;;8.90;1.90;;;14.80;99.90;;;;;;5064658;28;20788;-73
2022/10/25 03:53:40;;;;;;;7.00;1.37;;;14.80;99.90;;;;;;5063095;28;20621;-74
2022/10/25 03:56:25;;;;;;;3.17;1.17;;;14.70;99.90;;;;;;5057878;28;20992;-74
2022/10/25 03:59:11;;;;;;;3.80;1.60;;;14.60;99.90;;;;;;5062049;28;21043;-74
2022/10/25 04:01:57;;;;;;;15.80;2.23;;;14.50;99.90;;;;;;5064083;28;20492;-74
2022/10/25 04:04:44;;;;;;;7.30;1.80;;;14.50;99.90;;;;;;5067666;28;20412;-74
2022/10/25 04:07:29;;;;;;;8.20;1.90;;;14.40;99.90;;;;;;5065657;28;20832;-74
2022/10/25 04:10:16;;;;;;;8.30;2.10;;;14.40;99.90;;;;;;5066168;28;20496;-75
2022/10/25 04:13:01;;;;;;;5.20;1.77;;;14.30;99.90;;;;;;5065011;28;20444;-74
2022/10/25 04:15:47;;;;;;;5.10;1.30;;;14.30;99.90;;;;;;5065178;28;20418;-75
2022/10/25 04:18:33;;;;;;;18.60;2.60;;;14.20;99.90;;;;;;5069934;28;20585;-75
2022/10/25 04:21:20;;;;;;;10.60;1.60;;;14.00;99.90;;;;;;5067160;28;20449;-74
2022/10/25 04:24:06;;;;;;;5.90;1.67;;;14.00;99.90;;;;;;5067442;28;20440;-74
2022/10/25 04:26:51;;;;;;;6.90;1.70;;;14.00;99.90;;;;;;5062723;28;20442;-75
2022/10/25 04:29:37;;;;;;;8.33;1.40;;;14.00;99.90;;;;;;5072645;28;20832;-74
2022/10/25 04:32:23;;;;;;;5.40;1.90;;;13.90;99.90;;;;;;5061236;28;20394;-74
2022/10/25 04:35:09;;;;;;;9.50;1.40;;;13.90;99.90;;;;;;5073946;28;20465;-73
2022/10/25 04:37:58;;;;;;;20.80;1.97;;;14.00;99.90;;;;;;5074046;28;20461;-74
2022/10/25 04:40:52;;;;;;;5.73;1.40;;;14.00;99.90;;;;;;5071300;28;20791;-74
2022/10/25 04:43:37;;;;;;;2.67;1.10;;;14.00;99.90;;;;;;5073998;28;20902;-74
2022/10/25 04:46:23;;;;;;;4.03;1.13;;;14.00;99.90;;;;;;5073839;28;20444;-74
2022/10/25 04:49:11;;;;;;;5.77;1.40;;;14.00;99.90;;;;;;5074444;28;20422;-73
2022/10/25 04:51:58;;;;;;;5.23;2.10;;;13.90;99.90;;;;;;5061559;28;20532;-74
2022/10/25 04:54:45;;;;;;;8.07;1.83;;;13.90;99.90;;;;;;5059386;28;20462;-73
2022/10/25 04:57:30;;;;;;;4.80;1.13;;;13.80;99.90;;;;;;5071095;28;20429;-74
2022/10/25 05:00:16;;;;;;;6.77;1.50;;;13.80;99.90;;;;;;5066104;28;20474;-74
2022/10/25 05:03:02;;;;;;;16.57;1.60;;;13.80;99.90;;;;;;5071327;28;20802;-74
2022/10/25 05:05:48;;;;;;;4.97;1.47;;;13.70;99.90;;;;;;5069561;28;20793;-74
2022/10/25 05:08:34;;;;;;;6.27;1.73;;;13.70;99.90;;;;;;5067819;28;20412;-74
2022/10/25 05:11:23;;;;;;;7.57;1.50;;;13.80;99.90;;;;;;5063042;28;20421;-73
2022/10/25 05:14:08;;;;;;;5.90;1.23;;;13.90;99.90;;;;;;5067960;28;20504;-74
2022/10/25 05:16:54;;;;;;;7.30;1.60;;;13.90;99.90;;;;;;5068980;28;20452;-73
2022/10/25 05:19:40;;;;;;;10.23;2.40;;;14.00;99.90;;;;;;5067856;28;20468;-74
2022/10/25 05:22:26;;;;;;;4.77;2.40;;;14.10;99.90;;;;;;5069986;28;20960;-74
2022/10/25 05:25:11;;;;;;;7.00;1.40;;;14.20;99.90;;;;;;5069354;28;20548;-74
2022/10/25 05:27:58;;;;;;;6.13;1.50;;;14.30;99.90;;;;;;5063851;28;20437;-75
2022/10/25 05:30:44;;;;;;;6.63;1.27;;;14.40;99.90;;;;;;5066484;28;20409;-74
2022/10/25 05:33:29;;;;;;;4.97;1.67;;;14.40;99.90;;;;;;5066021;28;20413;-74
2022/10/25 05:36:15;;;;;;;7.07;1.57;;;14.40;99.90;;;;;;5067590;28;20459;-74
2022/10/25 05:39:01;;;;;;;5.07;1.60;;;14.40;99.90;;;;;;5068629;28;20450;-74
2022/10/25 05:41:48;;;;;;;9.50;2.10;;;14.50;99.90;;;;;;5069583;28;20507;-73
2022/10/25 05:44:35;;;;;;;3.30;1.50;;;14.50;99.90;;;;;;5068518;28;20944;-74
2022/10/25 05:47:21;;;;;;;6.20;2.03;;;14.50;99.90;;;;;;5067896;28;20445;-74
2022/10/25 05:50:07;;;;;;;13.33;1.97;;;14.60;99.90;;;;;;5062305;28;20575;-74
2022/10/25 05:52:53;;;;;;;2.47;1.30;;;14.60;99.90;;;;;;5068849;28;20813;-74
2022/10/25 05:55:38;;;;;;;7.50;1.60;;;14.60;99.90;;;;;;5061940;28;20548;-75
2022/10/25 05:58:24;;;;;;;8.70;1.80;;;14.60;99.90;;;;;;5066765;28;20533;-74
2022/10/25 06:01:13;;;;;;;7.93;1.90;;;14.60;99.90;;;;;;5060919;28;20807;-74
2022/10/25 06:03:58;;;;;;;6.73;2.00;;;14.60;99.90;;;;;;5065295;28;20423;-75
2022/10/25 06:06:46;;;;;;;5.80;2.00;;;14.60;99.90;;;;;;5072214;28;20447;-74
2022/10/25 06:09:32;;;;;;;9.43;2.03;;;14.70;99.90;;;;;;5067370;28;20443;-74
2022/10/25 06:12:18;;;;;;;5.97;1.30;;;14.70;99.90;;;;;;5061100;28;20420;-74
2022/10/25 06:15:04;;;;;;;3.50;2.10;;;14.70;99.90;;;;;;5052104;28;20471;-75
2022/10/25 06:17:51;;;;;;;7.10;1.60;;;14.80;99.90;;;;;;5058464;28;20841;-74
2022/10/25 06:20:36;;;;;;;12.83;1.73;;;14.70;99.90;;;;;;5060571;28;20819;-74
2022/10/25 06:23:22;;;;;;;13.83;2.07;;;14.80;99.90;;;;;;5070557;28;20464;-75
2022/10/25 06:26:10;;;;;;;7.70;2.23;;;14.70;99.90;;;;;;5059403;28;21099;-74
2022/10/25 06:28:58;;;;;;;4.57;1.60;;;14.60;99.90;;;;;;5055247;28;20478;-75
2022/10/25 06:31:43;;;;;;;9.27;2.23;;;14.70;99.90;;;;;;5065743;28;20398;-75
2022/10/25 06:34:30;;;;;;;7.33;2.37;;;14.80;99.90;;;;;;5071860;28;20508;-74
2022/10/25 06:37:16;;;;;;;4.13;1.30;;;14.80;99.90;;;;;;5072111;28;20642;-74
2022/10/25 06:40:01;;;;;;;7.13;2.37;;;14.90;99.90;;;;;;5066806;28;20454;-74
2022/10/25 06:42:47;;;;;;;8.43;1.77;;;14.90;99.90;;;;;;5060079;28;20502;-74
2022/10/25 06:45:32;;;;;;;11.33;1.80;;;14.80;99.90;;;;;;5071991;28;20907;-73
2022/10/25 06:48:18;;;;;;;7.33;1.60;;;14.80;99.90;;;;;;5069974;28;20526;-73
2022/10/25 06:51:08;;;;;;;10.87;2.23;;;14.80;99.90;;;;;;5062653;28;20529;-74
2022/10/25 06:53:54;;;;;;;4.43;1.63;;;14.80;99.90;;;;;;5057414;28;20422;-74
2022/10/25 06:56:40;;;;;;;7.63;1.80;;;14.90;99.90;;;;;;5066863;28;20464;-74
2022/10/25 06:59:26;;;;;;;4.07;1.50;;;15.00;99.90;;;;;;5063531;28;20474;-75
2022/10/25 07:02:12;;;;;;;8.60;2.13;;;15.00;99.90;;;;;;5068414;28;20446;-74
2022/10/25 07:04:57;;;;;;;6.67;1.30;;;14.90;99.90;;;;;;5068319;28;20560;-74
2022/10/25 07:07:44;;;;;;;6.40;2.10;;;14.80;99.90;;;;;;5066253;28;20506;-73
2022/10/25 07:10:30;;;;;;;11.17;3.03;;;14.90;99.90;;;;;;5064977;28;20830;-74
2022/10/25 07:13:16;;;;;;;6.43;1.60;;;14.90;99.90;;;;;;5065572;28;20540;-74
2022/10/25 07:16:03;;;;;;;8.63;1.87;;;14.90;99.90;;;;;;5067636;28;20452;-74
2022/10/25 07:18:49;;;;;;;8.57;1.73;;;14.90;99.90;;;;;;5064251;28;20446;-74
2022/10/25 07:21:34;;;;;;;6.97;1.80;;;14.90;99.90;;;;;;5067704;28;20978;-75
2022/10/25 07:24:21;;;;;;;6.53;1.63;;;14.90;99.90;;;;;;5064152;28;20446;-73
2022/10/25 07:27:07;;;;;;;7.70;2.20;;;14.90;99.90;;;;;;5059868;28;20472;-74
2022/10/25 07:29:53;;;;;;;16.63;1.97;;;14.90;99.90;;;;;;5055597;28;20416;-74
2022/10/25 07:32:39;;;;;;;16.87;1.80;;;15.00;99.90;;;;;;5067059;28;20941;-73
2022/10/25 07:35:24;;;;;;;12.40;1.90;;;15.10;99.90;;;;;;5068167;28;20576;-74
2022/10/25 07:38:10;;;;;;;7.97;1.50;;;15.10;99.90;;;;;;5058189;28;20447;-74
2022/10/25 07:40:58;;;;;;;13.30;2.27;;;15.20;99.90;;;;;;5068976;28;20413;-74
2022/10/25 07:43:44;;;;;;;5.07;1.70;;;15.20;99.90;;;;;;5059366;28;20605;-71
2022/10/25 07:46:30;;;;;;;8.30;1.67;;;15.10;99.90;;;;;;5071167;28;20458;-74
2022/10/25 07:49:15;;;;;;;6.10;1.53;;;15.20;99.90;;;;;;5070267;28;20456;-74
2022/10/25 07:52:01;;;;;;;4.43;1.30;;;15.30;99.90;;;;;;5068809;28;20491;-73
2022/10/25 07:54:47;;;;;;;4.50;1.50;;;15.30;99.90;;;;;;5068033;28;20895;-73
2022/10/25 07:57:34;;;;;;;7.70;1.30;;;15.40;99.90;;;;;;5071173;28;20475;-74
2022/10/25 08:00:19;;;;;;;7.90;2.30;;;15.40;99.90;;;;;;5065825;28;20864;-74
2022/10/25 08:03:05;;;;;;;6.27;2.10;;;15.40;99.90;;;;;;5064547;28;20592;-74
2022/10/25 08:05:51;;;;;;;6.13;1.87;;;15.40;99.90;;;;;;5067561;28;20483;-74
2022/10/25 08:08:37;;;;;;;5.53;1.40;;;15.50;99.90;;;;;;5065009;28;20448;-74
2022/10/25 08:11:22;;;;;;;7.63;2.30;;;15.60;99.90;;;;;;5055203;28;20498;-74
2022/10/25 08:14:09;;;;;;;4.50;1.83;;;15.50;99.90;;;;;;5067645;28;20937;-74
2022/10/25 08:16:55;;;;;;;7.20;1.60;;;15.50;99.90;;;;;;5070130;28;20441;-74
2022/10/25 08:19:40;;;;;;;6.57;1.40;;;15.50;99.90;;;;;;5069098;28;20473;-74
2022/10/25 08:22:26;;;;;;;14.33;1.90;;;15.50;99.90;;;;;;5064093;28;20565;-74
2022/10/25 08:25:12;;;;;;;5.37;1.63;;;15.60;99.90;;;;;;5059426;28;20945;-74
2022/10/25 08:27:57;;;;;;;5.33;1.30;;;15.70;99.90;;;;;;5065898;28;20447;-74
2022/10/25 08:30:44;;;;;;;7.90;2.23;;;15.80;99.90;;;;;;5071003;28;20932;-74
2022/10/25 08:33:32;;;;;;;4.40;1.50;;;15.80;99.90;;;;;;5068322;28;21037;-73
2022/10/25 08:36:18;;;;;;;12.63;1.97;;;16.00;99.90;;;;;;5054047;28;20465;-74
2022/10/25 08:39:04;;;;;;;14.40;1.67;;;16.10;99.90;;;;;;5056944;28;20417;-71
2022/10/25 08:41:53;;;;;;;10.07;2.33;;;16.00;99.90;;;;;;5065290;28;20553;-71
2022/10/25 08:44:45;;;;;;;6.90;1.60;;;16.10;99.90;;;;;;5065193;28;20563;-71
2022/10/25 08:47:37;;;;;;;7.50;2.07;;;16.10;99.90;;;;;;5069788;28;20454;-71
2022/10/25 08:50:28;;;;;;;7.73;1.77;;;16.20;99.90;;;;;;5071330;28;20770;-71
2022/10/25 08:53:18;;;;;;;5.67;1.63;;;16.10;99.90;;;;;;5063330;28;20417;-71
2022/10/25 08:56:07;;;;;;;5.20;1.60;;;16.10;99.90;;;;;;5065915;28;20980;-71
2022/10/25 08:58:56;;;;;;;5.80;2.17;;;15.90;99.90;;;;;;5071499;28;20427;-71
2022/10/25 09:01:49;;;;;;;4.90;1.83;;;16.00;99.90;;;;;;5072718;28;20401;-71
2022/10/25 09:04:36;;;;;;;7.90;1.70;;;15.90;99.90;;;;;;5063709;28;20454;-71
2022/10/25 09:07:42;;;;;;;9.67;2.03;;;16.00;99.90;;;;;;5070649;28;20435;-71
2022/10/25 09:10:53;;;;;;;5.93;1.43;;;16.20;99.90;;;;;;5065119;28;20540;-71
2022/10/25 09:13:46;;;;;;;9.57;1.70;;;16.30;99.90;;;;;;5063840;28;20451;-71
2022/10/25 09:16:37;;;;;;;15.10;1.67;;;16.30;99.90;;;;;;5063137;28;20469;-71
2022/10/25 09:19:44;;;;;;;12.07;2.10;;;16.40;99.90;;;;;;5068657;28;20438;-71
2022/10/25 09:22:37;;;;;;;4.90;2.10;;;16.50;99.90;;;;;;5067893;28;20404;-71
2022/10/25 09:25:30;;;;;;;7.40;1.60;;;16.40;99.90;;;;;;5064250;28;20409;-72
2022/10/25 09:28:21;;;;;;;4.20;1.20;;;16.40;99.90;;;;;;5064368;28;20402;-71
2022/10/25 09:31:11;;;;;;;3.37;1.37;;;16.30;99.90;;;;;;5062801;28;20443;-71
2022/10/25 09:34:00;;;;;;;8.53;1.60;;;16.30;99.90;;;;;;5063696;28;20508;-71
2022/10/25 09:36:48;;;;;;;7.03;1.43;;;16.20;99.90;;;;;;5071629;28;20858;-71
2022/10/25 09:39:39;;;;;;;6.93;1.53;;;16.30;99.90;;;;;;5071284;28;20427;-71
2022/10/25 09:42:28;;;;;;;11.40;1.77;;;16.20;99.90;;;;;;5067184;28;21123;-71
2022/10/25 09:45:22;;;;;;;6.40;1.90;;;16.30;99.90;;;;;;5066097;28;20398;-71
2022/10/25 09:48:15;;;;;;;3.43;1.23;;;16.20;99.90;;;;;;5066787;28;20829;-71
2022/10/25 09:51:06;;;;;;;7.57;1.57;;;16.30;99.90;;;;;;5069517;28;20471;-71
2022/10/25 09:53:54;;;;;;;3.60;1.33;;;16.40;99.90;;;;;;5063045;28;20819;-71
2022/10/25 09:56:41;;;;;;;9.63;2.13;;;16.30;99.90;;;;;;5071229;28;20475;-71
2022/10/25 09:59:27;;;;;;;11.00;1.80;;;16.30;99.90;;;;;;5069872;28;20426;-72
2022/10/25 10:02:19;;;;;;;4.80;1.80;;;16.40;99.90;;;;;;5068129;28;20445;-71
2022/10/25 10:05:05;;;;;;;9.83;1.63;;;16.40;99.90;;;;;;5069840;28;20415;-71
2022/10/25 10:07:51;;;;;;;7.80;1.53;;;16.50;99.90;;;;;;5071493;28;20984;-71
2022/10/25 10:10:39;;;;;;;11.43;2.07;;;16.50;99.90;;;;;;5066994;28;20398;-71
2022/10/25 10:13:34;;;;;;;6.10;1.60;;;16.40;99.90;;;;;;5062752;28;20462;-71
2022/10/25 10:16:22;;;;;;;6.83;1.40;;;16.50;99.90;;;;;;5065662;28;20464;-72
2022/10/25 10:19:17;;;;;;;7.90;1.50;;;16.50;99.90;;;;;;5066885;28;20794;-71
2022/10/25 10:22:08;;;;;;;9.33;1.67;;;16.60;99.90;;;;;;5058760;28;21078;-71
2022/10/25 10:25:00;;;;;;;11.43;1.57;;;16.70;99.90;;;;;;5063432;28;20418;-71
2022/10/25 10:27:47;;;;;;;11.97;1.50;;;16.70;99.90;;;;;;5068285;28;20432;-71
2022/10/25 10:30:37;;;;;;;3.37;1.10;;;16.50;99.90;;;;;;5065734;28;20644;-73
2022/10/25 10:33:25;;;;;;;7.20;1.40;;;16.50;99.90;;;;;;5054645;28;20463;-74
2022/10/25 10:36:23;;;;;;;7.20;1.50;;;16.50;99.90;;;;;;5051770;28;20508;-73
2022/10/25 10:39:20;;;;;;;7.63;1.70;;;16.60;99.90;;;;;;5051206;28;20402;-73
2022/10/25 10:42:15;;;;;;;10.87;1.57;;;16.70;99.90;;;;;;5055704;28;20426;-73
2022/10/25 10:45:23;;;;;;;5.33;1.57;;;16.70;99.90;;;;;;5060610;28;20403;-73
2022/10/25 10:48:20;;;;;;;7.33;1.60;;;16.80;99.90;;;;;;5051557;28;20407;-73
2022/10/25 10:51:05;;;;;;;8.07;1.77;;;16.70;99.90;;;;;;5051395;28;20427;-73
2022/10/25 10:53:52;;;;;;;8.33;2.40;;;16.80;99.90;;;;;;5059554;28;20398;-73
2022/10/25 10:56:37;;;;;;;3.20;1.27;;;16.70;99.90;;;;;;5059983;28;20617;-74
2022/10/25 10:59:28;;;;;;;6.00;1.67;;;16.70;99.90;;;;;;5051485;28;20406;-73
2022/10/25 11:02:26;;;;;;;6.27;1.70;;;16.70;99.90;;;;;;5057177;28;20421;-73
2022/10/25 11:05:24;;;;;;;8.17;2.17;;;16.70;99.90;;;;;;5065597;28;20540;-73
2022/10/25 11:08:18;;;;;;;4.80;1.27;;;16.70;99.90;;;;;;5071921;28;20392;-74
2022/10/25 11:11:15;;;;;;;7.13;1.50;;;16.80;99.90;;;;;;5068814;28;20782;-73
2022/10/25 11:14:07;;;;;;;6.90;1.30;;;16.90;99.90;;;;;;5062277;28;20430;-73
2022/10/25 11:17:01;;;;;;;3.70;1.13;;;16.90;99.90;;;;;;5070792;28;20448;-73
2022/10/25 11:20:00;;;;;;;4.90;1.23;;;17.00;99.90;;;;;;5071248;28;20423;-73
2022/10/25 11:22:57;;;;;;;8.10;1.37;;;17.00;99.90;;;;;;5060289;28;20455;-73
2022/10/25 11:25:52;;;;;;;6.20;1.50;;;17.00;99.90;;;;;;5059688;28;20386;-73
2022/10/25 11:28:44;;;;;;;11.40;1.30;;;17.10;99.90;;;;;;5071870;28;20433;-73
2022/10/25 11:31:46;;;;;;;2.60;1.50;;;17.20;99.90;;;;;;5064534;28;20422;-73
2022/10/25 11:34:37;;;;;;;6.47;1.77;;;17.30;99.90;;;;;;5063879;28;20442;-73
2022/10/25 11:37:31;;;;;;;6.20;1.40;;;17.40;99.90;;;;;;5058142;28;20453;-73
2022/10/25 11:40:22;;;;;;;7.70;1.60;;;17.40;99.90;;;;;;5059683;28;20441;-73
2022/10/25 11:43:25;;;;;;;11.23;1.70;;;17.40;99.90;;;;;;5055331;28;20757;-73
2022/10/25 11:46:20;;;;;;;6.67;1.30;;;17.30;99.90;;;;;;5058982;28;20909;-73
2022/10/25 11:49:25;;;;;;;6.60;1.90;;;17.30;99.90;;;;;;5055771;28;20653;-72
2022/10/25 11:52:28;;;;;;;8.70;2.10;;;17.20;99.90;;;;;;5058144;28;20448;-71
2022/10/25 11:55:27;;;;;;;7.47;1.83;;;17.30;99.90;;;;;;5058685;28;20416;-72
2022/10/25 11:58:34;;;;;;;3.13;1.27;;;17.30;99.90;;;;;;5058330;28;20480;-72
2022/10/25 12:01:33;;;;;;;5.70;1.50;;;17.30;99.90;;;;;;5051672;28;20421;-72
2022/10/25 12:04:41;;;;;;;4.10;1.53;;;17.30;99.90;;;;;;5055092;28;20542;-73
2022/10/25 12:07:32;;;;;;;6.40;1.47;;;17.40;99.90;;;;;;5056647;28;20582;-73
2022/10/25 12:10:26;;;;;;;6.10;1.40;;;17.50;99.90;;;;;;5052362;28;20437;-72
2022/10/25 12:13:16;;;;;;;6.30;1.30;;;17.50;99.90;;;;;;5059627;28;20548;-73
2022/10/25 12:16:04;;;;;;;3.77;1.13;;;17.50;99.90;;;;;;5054203;28;20886;-73
2022/10/25 12:18:51;;;;;;;7.67;1.60;;;17.50;99.90;;;;;;5055178;28;20446;-73
2022/10/25 12:21:43;;;;;;;7.77;1.53;;;17.60;99.90;;;;;;5059601;28;20447;-73
2022/10/25 12:24:34;;;;;;;7.10;2.47;;;17.70;99.90;;;;;;5053866;28;20417;-73
2022/10/25 12:27:23;;;;;;;8.40;1.53;;;17.80;99.90;;;;;;5065324;28;20467;-73
2022/10/25 12:30:15;;;;;;;8.43;1.70;;;17.80;99.90;;;;;;5062545;28;20421;-72
2022/10/25 12:33:10;;;;;;;7.10;1.60;;;17.90;99.90;;;;;;5053889;28;20462;-73
2022/10/25 12:36:01;;;;;;;4.47;1.37;;;17.90;99.90;;;;;;5059557;28;20462;-72
2022/10/25 12:38:47;;;;;;;11.43;1.73;;;17.90;99.90;;;;;;5070434;28;20548;-72
2022/10/25 12:41:37;;;;;;;11.00;2.77;;;17.90;99.90;;;;;;5063357;28;20449;-73
2022/10/25 12:44:42;;;;;;;10.13;1.70;;;17.80;99.90;;;;;;5065403;28;20442;-73
2022/10/25 12:47:49;;;;;;;9.73;1.83;;;17.60;99.90;;;;;;5067113;28;21166;-72
2022/10/25 12:50:50;;;;;;;9.73;1.80;;;17.50;99.90;;;;;;5055422;28;20673;-72
2022/10/25 12:54:05;;;;;;;7.37;1.40;;;17.40;99.90;;;;;;5066030;28;20433;-72
2022/10/25 12:57:02;;;;;;;3.27;1.17;;;17.40;99.90;;;;;;5064398;28;20824;-72
2022/10/25 13:00:08;;;;;;;23.47;1.90;;;17.40;99.90;;;;;;5053617;28;20434;-72
2022/10/25 13:03:28;;;;;;;6.60;1.80;;;17.40;99.90;;;;;;5062531;28;20398;-72
2022/10/25 13:06:33;;;;;;;6.97;1.30;;;17.60;99.90;;;;;;5073173;28;20943;-73
2022/10/25 13:09:21;;;;;;;8.60;1.67;;;18.00;99.90;;;;;;5071581;28;20431;-73
2022/10/25 13:12:18;;;;;;;5.13;1.20;;;18.20;99.90;;;;;;5066921;28;20513;-72
2022/10/25 13:15:06;;;;;;;8.63;1.27;;;18.40;99.90;;;;;;5073295;28;20448;-72
2022/10/25 13:18:24;;;;;;;8.83;1.43;;;18.60;99.90;;;;;;5073316;28;20493;-72
2022/10/25 13:21:11;;;;;;;3.73;1.37;;;18.60;99.90;;;;;;5064291;28;20417;-73
2022/10/25 13:24:01;;;;;;;6.57;1.93;;;18.60;99.90;;;;;;5065000;28;20420;-73
2022/10/25 13:27:18;;;;;;;8.30;1.70;;;18.80;99.90;;;;;;5064207;28;20439;-72
2022/10/25 13:30:25;;;;;;;6.43;1.60;;;18.90;99.90;;;;;;5067342;28;20452;-73
2022/10/25 13:33:32;;;;;;;7.33;1.67;;;18.90;99.90;;;;;;5067582;28;20465;-73
2022/10/25 13:36:37;;;;;;;9.13;1.63;;;18.60;99.90;;;;;;5072722;28;20886;-73
2022/10/25 13:39:26;;;;;;;7.23;1.17;;;18.50;99.90;;;;;;5069554;28;20491;-73
2022/10/25 13:42:25;;;;;;;7.67;1.77;;;18.40;99.90;;;;;;5064286;28;20464;-73
2022/10/25 13:45:24;;;;;;;8.63;1.77;;;18.30;99.90;;;;;;5072957;28;20423;-72
2022/10/25 13:48:19;;;;;;;6.90;1.63;;;18.30;99.90;;;;;;5072009;28;20403;-73
2022/10/25 13:51:10;;;;;;;5.70;1.43;;;18.20;99.90;;;;;;5062149;28;20426;-73
2022/10/25 13:54:00;;;;;;;3.00;1.10;;;18.40;99.90;;;;;;5067055;28;20402;-73
2022/10/25 13:56:51;;;;;;;7.80;1.50;;;18.40;99.90;;;;;;5064354;28;20445;-72
2022/10/25 14:00:00;;;;;;;9.63;1.50;;;18.40;99.90;;;;;;5065257;28;20463;-73
2022/10/25 14:03:22;;;;;;;4.87;1.53;;;18.30;99.90;;;;;;5052669;28;20409;-73
2022/10/25 14:06:24;;;;;;;6.03;1.27;;;18.30;99.90;;;;;;5052404;28;20852;-73
2022/10/25 14:09:19;;;;;;;4.77;1.40;;;18.30;99.90;;;;;;5055064;28;20987;-73
2022/10/25 14:12:13;;;;;;;6.10;1.47;;;18.40;99.90;;;;;;5061190;28;20452;-73
2022/10/25 14:15:04;;;;;;;7.53;1.40;;;18.40;99.90;;;;;;5052443;28;20428;-73
2022/10/25 14:17:50;;;;;;;3.47;1.37;;;18.40;99.90;;;;;;5052025;28;20478;-73
2022/10/25 14:20:37;;;;;;;4.60;1.67;;;18.40;99.90;;;;;;5055521;28;20422;-72
2022/10/25 14:23:28;;;;;;;10.43;3.00;;;18.30;99.90;;;;;;5055125;28;20509;-73
2022/10/25 14:26:15;;;;;;;11.47;2.00;;;18.20;99.90;;;;;;5060076;28;20418;-73
2022/10/25 14:29:12;;;;;;;4.00;1.40;;;18.10;99.90;;;;;;5054579;28;20455;-73
2022/10/25 14:31:59;;;;;;;9.03;2.03;;;18.10;99.90;;;;;;5060528;28;20506;-73
2022/10/25 14:34:49;;;;;;;5.13;2.13;;;18.10;99.90;;;;;;5051530;28;20398;-73
2022/10/25 14:37:42;;;;;;;5.40;1.70;;;18.10;99.90;;;;;;5051333;28;20500;-73
2022/10/25 14:40:29;;;;;;;6.90;2.00;;;18.00;99.90;;;;;;5064006;28;20912;-73
2022/10/25 14:43:23;;;;;;;11.73;2.10;;;18.00;99.90;;;;;;5051666;28;20552;-73
2022/10/25 14:46:14;;;;;;;4.70;1.20;;;17.80;99.90;;;;;;5051271;28;20800;-73